createdAt,value
2023-11-27T00:00:04.720Z,-2.27
2023-11-27T00:02:35.172Z,-2.29
2023-11-27T00:05:05.918Z,-2.34
2023-11-27T00:07:34.196Z,-2.38
2023-11-27T00:10:02.750Z,-2.32
2023-11-27T00:12:32.266Z,-2.31
2023-11-27T00:15:00.422Z,-2.32
2023-11-27T00:17:29.016Z,-2.30
2023-11-27T00:19:57.225Z,-2.29
2023-11-27T00:22:25.345Z,-2.37
2023-11-27T00:24:53.453Z,-2.30
2023-11-27T00:27:22.499Z,-2.29
2023-11-27T00:29:51.979Z,-2.27
2023-11-27T00:32:21.520Z,-2.26
2023-11-27T00:34:49.702Z,-2.26
2023-11-27T00:37:18.243Z,-2.28
2023-11-27T00:39:46.357Z,-2.30
2023-11-27T00:42:14.893Z,-2.30
2023-11-27T00:44:45.538Z,-2.32
2023-11-27T00:47:15.181Z,-2.32
2023-11-27T00:49:43.289Z,-2.35
2023-11-27T00:52:11.386Z,-2.35
2023-11-27T00:54:39.466Z,-2.45
2023-11-27T00:57:08.298Z,-2.54
2023-11-27T00:59:41.960Z,-2.49
2023-11-27T01:02:10.645Z,-2.45
2023-11-27T01:04:41.304Z,-2.43
2023-11-27T01:07:10.538Z,-2.44
2023-11-27T01:09:39.955Z,-2.50
2023-11-27T01:12:08.375Z,-3.02
2023-11-27T01:14:36.447Z,-2.45
2023-11-27T01:17:04.572Z,-2.46
2023-11-27T01:19:33.133Z,-2.47
2023-11-27T01:22:02.651Z,-2.48
2023-11-27T01:24:30.918Z,-2.52
2023-11-27T01:26:58.994Z,-2.45
2023-11-27T01:29:27.071Z,-2.47
2023-11-27T01:31:55.589Z,-2.51
2023-11-27T01:34:23.705Z,-2.55
2023-11-27T01:36:51.805Z,-2.55
2023-11-27T01:39:21.316Z,-2.56
2023-11-27T01:41:49.394Z,-2.57
2023-11-27T01:44:17.457Z,-2.57
2023-11-27T01:46:49.089Z,-2.57
2023-11-27T01:49:19.331Z,-2.60
2023-11-27T01:51:51.367Z,-2.55
2023-11-27T01:54:21.652Z,-2.54
2023-11-27T01:56:50.916Z,-2.72
2023-11-27T01:59:20.161Z,-2.57
2023-11-27T02:01:48.832Z,-2.56
2023-11-27T02:04:17.336Z,-2.57
2023-11-27T02:06:45.515Z,-2.64
2023-11-27T02:09:14.690Z,-2.96
2023-11-27T02:11:50.326Z,-2.55
2023-11-27T02:14:18.468Z,-2.67
2023-11-27T02:16:47.462Z,-2.63
2023-11-27T02:19:16.062Z,-2.56
2023-11-27T02:21:44.873Z,-2.55
2023-11-27T02:24:14.350Z,-2.56
2023-11-27T02:26:42.430Z,-2.56
2023-11-27T02:29:10.637Z,-2.56
2023-11-27T02:31:39.515Z,-2.62
2023-11-27T02:34:07.796Z,-2.56
2023-11-27T02:36:39.768Z,-2.54
2023-11-27T02:39:08.560Z,-2.53
2023-11-27T02:41:39.090Z,-2.63
2023-11-27T02:44:07.857Z,-2.53
2023-11-27T02:46:36.858Z,-2.54
2023-11-27T02:49:05.160Z,-2.60
2023-11-27T02:51:33.559Z,-2.54
2023-11-27T02:54:01.641Z,-2.59
2023-11-27T02:56:29.680Z,-2.55
2023-11-27T02:58:59.112Z,-2.58
2023-11-27T03:01:28.258Z,-2.52
2023-11-27T03:03:56.574Z,-2.50
2023-11-27T03:06:24.729Z,-2.50
2023-11-27T03:08:52.937Z,-2.49
2023-11-27T03:11:21.002Z,-2.55
2023-11-27T03:13:49.100Z,-2.49
2023-11-27T03:16:18.634Z,-2.52
2023-11-27T03:18:47.342Z,-2.47
2023-11-27T03:21:22.239Z,-2.49
2023-11-27T03:23:50.477Z,-2.44
2023-11-27T03:26:19.550Z,-2.45
2023-11-27T03:28:47.756Z,-2.45
2023-11-27T03:31:16.015Z,-2.46
2023-11-27T03:33:45.563Z,-2.47
2023-11-27T03:36:14.137Z,-2.46
2023-11-27T03:38:42.210Z,-2.64
2023-11-27T03:41:18.824Z,-2.50
2023-11-27T03:43:47.042Z,-2.51
2023-11-27T03:46:15.227Z,-2.51
2023-11-27T03:48:43.352Z,-2.51
2023-11-27T03:51:12.854Z,-2.52
2023-11-27T03:53:40.948Z,-2.81
2023-11-27T03:56:09.880Z,-2.67
2023-11-27T03:58:37.963Z,-2.52
2023-11-27T04:01:06.546Z,-2.52
2023-11-27T04:03:34.917Z,-2.53
2023-11-27T04:06:05.741Z,-2.55
2023-11-27T04:08:35.513Z,-2.65
2023-11-27T04:11:03.922Z,-2.60
2023-11-27T04:13:32.233Z,-2.65
2023-11-27T04:16:00.752Z,-2.67
2023-11-27T04:18:29.143Z,-2.71
2023-11-27T04:20:57.194Z,-2.73
2023-11-27T04:23:25.235Z,-2.72
2023-11-27T04:25:54.878Z,-2.81
2023-11-27T04:28:23.129Z,-2.74
2023-11-27T04:30:51.370Z,-2.77
2023-11-27T04:33:20.381Z,-2.81
2023-11-27T04:35:49.587Z,-2.90
2023-11-27T04:38:18.652Z,-2.85
2023-11-27T04:40:46.852Z,-2.87
2023-11-27T04:43:16.451Z,-2.90
2023-11-27T04:45:44.741Z,-2.96
2023-11-27T04:48:12.818Z,-2.94
2023-11-27T04:50:40.885Z,-2.94
2023-11-27T04:53:09.043Z,-2.93
2023-11-27T04:55:37.127Z,-2.92
2023-11-27T04:58:05.235Z,-2.94
2023-11-27T05:00:34.750Z,-2.93
2023-11-27T05:03:02.927Z,-3.24
2023-11-27T05:05:31.018Z,-2.97
2023-11-27T05:07:59.102Z,-3.02
2023-11-27T05:10:29.364Z,-2.97
2023-11-27T05:12:57.800Z,-3.01
2023-11-27T05:15:25.892Z,-3.12
2023-11-27T05:17:56.075Z,-3.18
2023-11-27T05:20:24.301Z,-3.19
2023-11-27T05:22:52.815Z,-3.25
2023-11-27T05:25:20.995Z,-3.41
2023-11-27T05:27:49.494Z,-3.36
2023-11-27T05:30:18.175Z,-3.40
2023-11-27T05:32:46.271Z,-3.46
2023-11-27T05:35:15.801Z,-3.49
2023-11-27T05:37:43.987Z,-3.54
2023-11-27T05:40:13.207Z,-3.54
2023-11-27T05:42:42.153Z,-3.57
2023-11-27T05:45:12.475Z,-3.60
2023-11-27T05:47:41.575Z,-3.60
2023-11-27T05:50:13.012Z,-3.67
2023-11-27T05:52:42.543Z,-3.64
2023-11-27T05:55:11.267Z,-3.68
2023-11-27T05:57:39.399Z,-3.70
2023-11-27T06:00:08.908Z,-3.71
2023-11-27T06:02:38.147Z,-3.73
2023-11-27T06:05:07.150Z,-3.74
2023-11-27T06:07:35.438Z,-3.79
2023-11-27T06:10:05.412Z,-4.15
2023-11-27T06:12:33.662Z,-3.91
2023-11-27T06:15:01.735Z,-4.05
2023-11-27T06:17:29.842Z,-4.00
2023-11-27T06:19:58.000Z,-4.02
2023-11-27T06:22:27.420Z,-4.01
2023-11-27T06:24:57.908Z,-4.13
2023-11-27T06:27:28.093Z,-4.21
2023-11-27T06:29:56.314Z,-4.04
2023-11-27T06:32:24.563Z,-4.10
2023-11-27T06:34:53.425Z,-4.16
2023-11-27T06:37:21.523Z,-4.19
2023-11-27T06:39:49.760Z,-4.20
2023-11-27T06:42:17.853Z,-4.23
2023-11-27T06:44:47.328Z,-4.29
2023-11-27T06:47:15.438Z,-4.30
2023-11-27T06:49:45.162Z,-4.32
2023-11-27T06:52:14.397Z,-4.53
2023-11-27T06:54:42.490Z,-4.35
2023-11-27T06:57:10.707Z,-4.43
2023-11-27T06:59:45.064Z,-4.45
2023-11-27T07:02:15.184Z,-4.55
2023-11-27T07:04:43.397Z,-4.55
2023-11-27T07:07:11.868Z,-4.61
2023-11-27T07:09:39.973Z,-4.96
2023-11-27T07:12:10.123Z,-4.73
2023-11-27T07:14:38.493Z,-4.78
2023-11-27T07:17:06.937Z,-4.83
2023-11-27T07:19:36.573Z,-4.87
2023-11-27T07:22:05.459Z,-4.90
2023-11-27T07:24:33.610Z,-4.94
2023-11-27T07:27:03.562Z,-4.96
2023-11-27T07:29:31.649Z,-4.98
2023-11-27T07:31:59.800Z,-4.98
2023-11-27T07:34:28.793Z,-5.00
2023-11-27T07:36:58.858Z,-5.03
2023-11-27T07:39:27.271Z,-5.10
2023-11-27T07:41:55.394Z,-5.03
2023-11-27T07:44:26.395Z,-5.01
2023-11-27T07:46:54.713Z,-5.03
2023-11-27T07:49:23.198Z,-5.00
2023-11-27T07:51:51.294Z,-4.92
2023-11-27T07:54:21.752Z,-4.97
2023-11-27T07:56:50.105Z,-4.91
2023-11-27T07:59:18.240Z,-4.93
2023-11-27T08:01:46.897Z,-4.93
2023-11-27T08:04:15.238Z,-4.99
2023-11-27T08:06:45.377Z,-4.92
2023-11-27T08:09:13.531Z,-4.92
2023-11-27T08:11:43.216Z,-4.88
2023-11-27T08:14:11.851Z,-4.82
2023-11-27T08:16:39.972Z,-4.79
2023-11-27T08:19:08.100Z,-4.80
2023-11-27T08:21:37.028Z,-4.82
2023-11-27T08:24:07.351Z,-4.75
2023-11-27T08:26:40.814Z,-4.74
2023-11-27T08:29:11.943Z,-4.74
2023-11-27T08:31:41.619Z,-4.75
2023-11-27T08:34:09.867Z,-4.71
2023-11-27T08:36:39.578Z,-4.69
2023-11-27T08:39:11.398Z,-4.60
2023-11-27T08:41:39.992Z,-4.53
2023-11-27T08:44:09.921Z,-4.46
2023-11-27T08:46:39.643Z,-4.38
2023-11-27T08:49:07.764Z,-4.40
2023-11-27T08:51:35.927Z,-4.30
2023-11-27T08:54:04.095Z,-4.25
2023-11-27T08:56:35.055Z,-4.26
2023-11-27T08:59:03.467Z,-4.02
2023-11-27T09:01:31.691Z,-3.93
2023-11-27T09:04:01.658Z,-3.82
2023-11-27T09:06:30.108Z,-3.84
2023-11-27T09:08:58.279Z,-3.66
2023-11-27T09:11:26.864Z,-3.73
2023-11-27T09:13:55.162Z,-3.71
2023-11-27T09:16:23.593Z,-3.67
2023-11-27T09:18:51.696Z,-3.69
2023-11-27T09:21:21.212Z,-3.87
2023-11-27T09:23:49.495Z,-3.53
2023-11-27T09:26:17.566Z,-3.39
2023-11-27T09:28:48.832Z,-3.21
2023-11-27T09:31:18.829Z,-3.24
2023-11-27T09:33:47.054Z,-3.14
2023-11-27T09:36:16.654Z,-3.09
2023-11-27T09:38:46.233Z,-2.99
2023-11-27T09:41:14.706Z,-2.88
2023-11-27T09:43:42.868Z,-2.92
2023-11-27T09:46:18.383Z,-2.89
2023-11-27T09:48:48.598Z,-3.02
2023-11-27T09:51:17.419Z,-3.23
2023-11-27T09:53:52.064Z,-3.37
2023-11-27T09:56:28.438Z,-3.49
2023-11-27T09:59:00.933Z,-3.60
2023-11-27T10:01:30.755Z,-3.67
2023-11-27T10:04:01.367Z,-3.60
2023-11-27T10:06:35.269Z,-3.60
2023-11-27T10:09:09.218Z,-3.62
2023-11-27T10:11:38.102Z,-3.67
2023-11-27T10:14:29.890Z,-3.77
2023-11-27T10:16:59.857Z,-3.89
2023-11-27T10:19:28.467Z,-3.93
2023-11-27T10:21:57.713Z,-4.00
2023-11-27T10:24:27.385Z,-4.01
2023-11-27T10:26:55.498Z,-4.06
2023-11-27T10:29:27.781Z,-4.10
2023-11-27T10:31:59.681Z,-4.33
2023-11-27T10:34:28.605Z,-4.15
2023-11-27T10:36:59.262Z,-4.17
2023-11-27T10:39:33.829Z,-4.19
2023-11-27T10:42:04.048Z,-4.20
2023-11-27T10:44:36.276Z,-4.19
2023-11-27T10:47:09.257Z,-4.16
2023-11-27T10:49:40.225Z,-4.15
2023-11-27T10:52:10.551Z,-4.86
2023-11-27T10:54:42.161Z,-4.28
2023-11-27T10:57:11.723Z,-4.31
2023-11-27T10:59:43.482Z,-4.45
2023-11-27T11:02:14.081Z,-4.28
2023-11-27T11:04:52.918Z,-4.26
2023-11-27T11:07:23.975Z,-4.24
2023-11-27T11:09:56.743Z,-4.20
2023-11-27T11:12:26.153Z,-4.41
2023-11-27T11:14:55.234Z,-4.08
2023-11-27T11:17:35.596Z,-4.11
2023-11-27T11:20:16.196Z,-4.11
2023-11-27T11:22:54.145Z,-3.94
2023-11-27T11:25:30.995Z,-3.91
2023-11-27T11:28:07.168Z,-3.91
2023-11-27T11:30:36.976Z,-3.97
2023-11-27T11:33:07.898Z,-3.98
2023-11-27T11:35:37.911Z,-3.86
2023-11-27T11:38:17.554Z,-3.96
2023-11-27T11:40:49.862Z,-3.78
2023-11-27T11:43:18.517Z,-3.79
2023-11-27T11:45:47.598Z,-3.86
2023-11-27T11:48:16.578Z,-3.71
2023-11-27T11:50:44.760Z,-3.61
2023-11-27T11:53:38.436Z,-3.54
2023-11-27T11:56:20.795Z,-3.35
2023-11-27T11:58:52.199Z,-3.25
2023-11-27T12:01:21.295Z,-3.15
2023-11-27T12:03:50.071Z,-3.19
2023-11-27T12:06:18.311Z,-2.94
2023-11-27T12:08:47.277Z,-2.93
2023-11-27T12:11:17.108Z,-3.00
2023-11-27T12:13:46.173Z,-3.18
2023-11-27T12:16:15.409Z,-3.10
2023-11-27T12:18:45.845Z,-3.12
2023-11-27T12:21:16.496Z,-3.20
2023-11-27T12:23:47.636Z,-3.18
2023-11-27T12:26:24.116Z,-3.25
2023-11-27T12:28:52.931Z,-3.35
2023-11-27T12:31:22.624Z,-3.29
2023-11-27T12:33:51.276Z,-3.04
2023-11-27T12:36:22.665Z,-2.76
2023-11-27T12:38:54.005Z,-2.65
2023-11-27T12:41:34.331Z,-2.65
2023-11-27T12:44:17.608Z,-2.78
2023-11-27T12:46:51.502Z,-2.90
2023-11-27T12:49:22.287Z,-3.06
2023-11-27T12:51:53.407Z,-3.24
2023-11-27T12:54:24.447Z,-3.39
2023-11-27T12:57:00.455Z,-3.58
2023-11-27T12:59:29.118Z,-3.76
2023-11-27T13:01:59.627Z,-3.89
2023-11-27T13:04:31.354Z,-4.05
2023-11-27T13:07:00.628Z,-4.00
2023-11-27T13:09:28.738Z,-4.02
2023-11-27T13:11:58.248Z,-4.05
2023-11-27T13:14:26.338Z,-4.10
2023-11-27T13:16:54.952Z,-4.12
2023-11-27T13:19:26.189Z,-4.14
2023-11-27T13:21:56.829Z,-4.22
2023-11-27T13:24:31.537Z,-4.18
2023-11-27T13:27:08.829Z,-4.09
2023-11-27T13:29:36.893Z,-4.11
2023-11-27T13:32:05.185Z,-4.06
2023-11-27T13:34:38.341Z,-4.03
2023-11-27T13:37:10.049Z,-4.02
2023-11-27T13:39:41.709Z,-4.10
2023-11-27T13:42:11.239Z,-3.96
2023-11-27T13:44:39.359Z,-3.96
2023-11-27T13:47:10.769Z,-3.98
2023-11-27T13:49:42.260Z,-4.09
2023-11-27T13:52:17.454Z,-3.93
2023-11-27T13:54:50.229Z,-3.96
2023-11-27T13:57:28.937Z,-3.96
2023-11-27T13:59:59.159Z,-4.95
2023-11-27T14:02:29.491Z,-4.04
2023-11-27T14:05:07.883Z,-4.15
2023-11-27T14:07:42.267Z,-4.28
2023-11-27T14:10:23.765Z,-4.41
2023-11-27T14:13:02.122Z,-4.54
2023-11-27T14:15:40.495Z,-4.69
2023-11-27T14:18:38.990Z,-4.78
2023-11-27T14:21:33.287Z,-5.07
2023-11-27T14:24:05.505Z,-5.00
2023-11-27T14:26:47.983Z,-5.07
2023-11-27T14:29:22.886Z,-5.22
2023-11-27T14:31:52.367Z,-5.29
2023-11-27T14:34:26.721Z,-5.91
2023-11-27T14:36:55.200Z,-5.32
2023-11-27T14:39:27.494Z,-5.35
2023-11-27T14:41:56.520Z,-5.41
2023-11-27T14:44:27.221Z,-5.47
2023-11-27T14:46:55.925Z,-5.51
2023-11-27T14:49:26.663Z,-5.75
2023-11-27T14:52:00.281Z,-5.79
2023-11-27T14:54:28.931Z,-5.65
2023-11-27T14:56:57.515Z,-5.69
2023-11-27T14:59:27.203Z,-5.76
2023-11-27T15:01:56.239Z,-5.74
2023-11-27T15:04:25.135Z,-5.79
2023-11-27T15:06:53.404Z,-5.83
2023-11-27T15:09:24.028Z,-5.99
2023-11-27T15:11:53.232Z,-5.84
2023-11-27T15:14:22.001Z,-5.92
2023-11-27T15:16:52.842Z,-5.88
2023-11-27T15:19:22.037Z,-5.90
2023-11-27T15:21:50.855Z,-5.92
2023-11-27T15:24:19.143Z,-5.98
2023-11-27T15:26:52.024Z,-6.02
2023-11-27T15:29:20.466Z,-5.97
2023-11-27T15:31:50.311Z,-6.01
2023-11-27T15:34:19.985Z,-6.02
2023-11-27T15:36:50.833Z,-6.02
2023-11-27T15:39:24.453Z,-6.10
2023-11-27T15:41:53.943Z,-6.05
2023-11-27T15:44:22.057Z,-6.06
2023-11-27T15:46:50.936Z,-6.07
2023-11-27T15:49:20.498Z,-6.09
2023-11-27T15:51:48.629Z,-6.14
2023-11-27T15:54:17.739Z,-6.18
2023-11-27T15:56:46.388Z,-6.38
2023-11-27T15:59:15.503Z,-6.20
2023-11-27T16:01:43.784Z,-6.24
2023-11-27T16:04:13.643Z,-6.28
2023-11-27T16:06:43.526Z,-6.32
2023-11-27T16:09:11.896Z,-6.35
2023-11-27T16:11:41.633Z,-6.54
2023-11-27T16:14:14.396Z,-6.49
2023-11-27T16:16:46.373Z,-6.48
2023-11-27T16:19:15.876Z,-6.45
2023-11-27T16:21:46.221Z,-6.55
2023-11-27T16:24:15.264Z,-6.49
2023-11-27T16:26:43.949Z,-6.51
2023-11-27T16:29:12.340Z,-6.58
2023-11-27T16:31:40.731Z,-6.71
2023-11-27T16:34:08.967Z,-6.61
2023-11-27T16:36:37.020Z,-6.61
2023-11-27T16:39:09.218Z,-6.67
2023-11-27T16:41:37.284Z,-6.66
2023-11-27T16:44:05.617Z,-6.68
2023-11-27T16:46:35.022Z,-6.85
2023-11-27T16:49:04.067Z,-6.71
2023-11-27T16:51:33.166Z,-6.75
2023-11-27T16:54:01.452Z,-6.77
2023-11-27T16:56:31.979Z,-6.78
2023-11-27T16:59:00.072Z,-6.98
2023-11-27T17:01:28.463Z,-6.82
2023-11-27T17:04:01.151Z,-6.83
2023-11-27T17:06:29.780Z,-7.17
2023-11-27T17:08:58.518Z,-6.87
2023-11-27T17:11:26.740Z,-6.88
2023-11-27T17:13:56.836Z,-6.89
2023-11-27T17:16:25.480Z,-6.91
2023-11-27T17:18:53.727Z,-6.93
2023-11-27T17:21:21.826Z,-6.98
2023-11-27T17:23:50.015Z,-6.98
2023-11-27T17:26:19.445Z,-7.03
2023-11-27T17:28:48.840Z,-7.04
2023-11-27T17:31:18.424Z,-7.04
2023-11-27T17:33:49.199Z,-7.10
2023-11-27T17:36:17.297Z,-7.12
2023-11-27T17:38:45.541Z,-7.35
2023-11-27T17:41:14.441Z,-7.17
2023-11-27T17:43:43.387Z,-7.19
2023-11-27T17:46:12.936Z,-7.21
2023-11-27T17:48:45.170Z,-7.23
2023-11-27T17:51:14.527Z,-7.41
2023-11-27T17:53:42.624Z,-7.25
2023-11-27T17:56:11.568Z,-7.26
2023-11-27T17:58:40.313Z,-7.54
2023-11-27T18:01:09.933Z,-7.29
2023-11-27T18:03:40.753Z,-7.93
2023-11-27T18:06:11.418Z,-7.34
2023-11-27T18:08:39.456Z,-7.36
2023-11-27T18:11:11.699Z,-7.39
2023-11-27T18:13:42.109Z,-7.37
2023-11-27T18:16:12.385Z,-7.38
2023-11-27T18:18:40.796Z,-7.38
2023-11-27T18:21:11.284Z,-7.40
2023-11-27T18:23:39.363Z,-7.39
2023-11-27T18:26:10.596Z,-7.39
2023-11-27T18:28:39.441Z,-7.26
2023-11-27T18:31:08.104Z,-7.17
2023-11-27T18:33:36.170Z,-7.08
2023-11-27T18:36:04.574Z,-7.03
2023-11-27T18:38:35.505Z,-6.99
2023-11-27T18:41:03.627Z,-7.20
2023-11-27T18:43:32.087Z,-6.85
2023-11-27T18:46:00.322Z,-6.81
2023-11-27T18:48:28.726Z,-6.79
2023-11-27T18:50:56.867Z,-6.76
2023-11-27T18:53:25.753Z,-6.74
2023-11-27T18:55:55.355Z,-6.70
2023-11-27T18:58:23.573Z,-6.85
2023-11-27T19:00:53.393Z,-6.64
2023-11-27T19:03:23.657Z,-6.66
2023-11-27T19:05:51.934Z,-6.70
2023-11-27T19:08:20.030Z,-6.80
2023-11-27T19:10:48.143Z,-6.84
2023-11-27T19:13:17.691Z,-7.18
2023-11-27T19:15:52.575Z,-7.04
2023-11-27T19:18:20.739Z,-7.24
2023-11-27T19:20:48.783Z,-7.15
2023-11-27T19:23:16.867Z,-7.30
2023-11-27T19:25:44.999Z,-7.32
2023-11-27T19:28:13.206Z,-7.38
2023-11-27T19:30:44.738Z,-7.48
2023-11-27T19:33:12.987Z,-7.47
2023-11-27T19:35:41.143Z,-7.42
2023-11-27T19:38:16.712Z,-7.40
2023-11-27T19:40:45.132Z,-7.37
2023-11-27T19:43:13.543Z,-7.37
2023-11-27T19:45:43.807Z,-7.73
2023-11-27T19:48:12.301Z,-7.29
2023-11-27T19:50:40.644Z,-7.49
2023-11-27T19:53:10.217Z,-7.11
2023-11-27T19:55:38.646Z,-7.09
2023-11-27T19:58:07.378Z,-7.05
2023-11-27T20:00:35.457Z,-7.31
2023-11-27T20:03:06.270Z,-7.03
2023-11-27T20:05:36.650Z,-6.99
2023-11-27T20:08:04.972Z,-7.06
2023-11-27T20:10:33.242Z,-7.34
2023-11-27T20:13:01.377Z,-6.92
2023-11-27T20:15:29.525Z,-6.90
2023-11-27T20:17:57.623Z,-6.94
2023-11-27T20:20:28.176Z,-6.91
2023-11-27T20:22:56.257Z,-6.89
2023-11-27T20:25:25.394Z,-6.81
2023-11-27T20:27:53.511Z,-6.78
2023-11-27T20:30:24.559Z,-6.78
2023-11-27T20:32:53.912Z,-6.78
2023-11-27T20:35:23.029Z,-6.77
2023-11-27T20:37:52.590Z,-6.78
2023-11-27T20:40:20.757Z,-6.87
2023-11-27T20:42:50.918Z,-6.78
2023-11-27T20:45:19.127Z,-6.77
2023-11-27T20:47:47.867Z,-6.76
2023-11-27T20:50:16.235Z,-6.78
2023-11-27T20:52:44.401Z,-6.70
2023-11-27T20:55:14.133Z,-6.66
2023-11-27T20:57:42.737Z,-6.66
2023-11-27T21:00:12.637Z,-6.66
2023-11-27T21:02:44.211Z,-6.65
2023-11-27T21:05:13.356Z,-6.64
2023-11-27T21:07:42.332Z,-6.61
2023-11-27T21:10:12.682Z,-6.58
2023-11-27T21:12:43.473Z,-6.58
2023-11-27T21:15:12.703Z,-6.56
2023-11-27T21:17:41.384Z,-6.55
2023-11-27T21:20:13.649Z,-6.59
2023-11-27T21:22:43.628Z,-6.51
2023-11-27T21:25:14.699Z,-6.50
2023-11-27T21:27:44.341Z,-6.47
2023-11-27T21:30:17.228Z,-6.71
2023-11-27T21:32:47.693Z,-6.45
2023-11-27T21:35:17.732Z,-6.43
2023-11-27T21:37:46.066Z,-6.57
2023-11-27T21:40:14.292Z,-6.49
2023-11-27T21:42:47.030Z,-6.48
2023-11-27T21:45:15.384Z,-6.43
2023-11-27T21:47:43.573Z,-6.43
2023-11-27T21:50:12.175Z,-6.42
2023-11-27T21:52:40.917Z,-6.41
2023-11-27T21:55:10.290Z,-6.39
2023-11-27T21:57:41.256Z,-6.36
2023-11-27T22:00:12.172Z,-6.36
2023-11-27T22:02:42.313Z,-6.35
2023-11-27T22:05:13.730Z,-6.59
2023-11-27T22:07:42.828Z,-6.32
2023-11-27T22:10:11.997Z,-6.30
2023-11-27T22:12:41.807Z,-6.26
2023-11-27T22:15:14.586Z,-6.38
2023-11-27T22:17:42.774Z,-6.47
2023-11-27T22:20:12.769Z,-6.35
2023-11-27T22:22:42.567Z,-6.20
2023-11-27T22:25:10.728Z,-6.18
2023-11-27T22:27:38.915Z,-6.39
2023-11-27T22:30:08.529Z,-6.35
2023-11-27T22:32:38.350Z,-6.26
2023-11-27T22:35:07.308Z,-6.23
2023-11-27T22:37:37.501Z,-6.27
2023-11-27T22:40:08.954Z,-6.50
2023-11-27T22:42:38.133Z,-6.53
2023-11-27T22:45:07.356Z,-6.49
2023-11-27T22:47:35.523Z,-6.52
2023-11-27T22:50:05.564Z,-6.50
2023-11-27T22:52:34.297Z,-6.46
2023-11-27T22:55:03.636Z,-6.41
2023-11-27T22:57:31.800Z,-6.34
2023-11-27T23:00:00.056Z,-6.29
2023-11-27T23:02:30.104Z,-6.24
2023-11-27T23:04:58.302Z,-6.19
2023-11-27T23:07:27.835Z,-6.22
2023-11-27T23:09:58.284Z,-6.13
2023-11-27T23:12:26.842Z,-6.11
2023-11-27T23:14:55.507Z,-6.09
2023-11-27T23:17:23.766Z,-6.43
2023-11-27T23:19:53.099Z,-6.07
2023-11-27T23:22:21.331Z,-6.12
2023-11-27T23:24:50.985Z,-5.99
2023-11-27T23:27:19.090Z,-5.97
2023-11-27T23:29:47.175Z,-5.95
2023-11-27T23:32:15.425Z,-5.93
2023-11-27T23:34:43.884Z,-6.01
2023-11-27T23:37:12.344Z,-5.89
2023-11-27T23:39:40.581Z,-6.06
2023-11-27T23:42:11.175Z,-5.91
2023-11-27T23:44:40.296Z,-5.83
2023-11-27T23:47:08.781Z,-5.80
2023-11-27T23:49:39.149Z,-5.77
2023-11-27T23:52:09.631Z,-5.79
2023-11-27T23:54:37.693Z,-5.73
2023-11-27T23:57:08.780Z,-5.70
2023-11-27T23:59:39.249Z,-5.68
